Time;durP1;ratioP1;P1;durP2;ratioP2;P2;SDS_P1;SDS_P2;PMS_P1;PMS_P2;Temp;Humidity;BMP_temperature;BMP_pressure;BME280_temperature;BME280_humidity;BME280_pressure;Samples;Min_cycle;Max_cycle;Signal;HPM_P1;HPM_P2
2023/07/06 00:01:25;;;;;;;9.00;5.50;;;;;;;18.66;80.76;100243.92;102739;277;96539;-54
2023/07/06 00:04:07;;;;;;;6.90;5.20;;;;;;;18.65;80.79;100247.19;102793;276;98168;-56
2023/07/06 00:06:44;;;;;;;5.70;5.10;;;;;;;18.63;80.89;100244.79;102573;277;118993;-56
2023/07/06 00:09:24;;;;;;;6.90;5.50;;;;;;;18.63;81.07;100246.87;102661;277;109262;-57
2023/07/06 00:11:59;;;;;;;6.20;5.10;;;;;;;18.65;81.26;100251.08;102801;277;114765;-57
2023/07/06 00:14:43;;;;;;;7.80;4.90;;;;;;;18.65;81.33;100256.33;102777;277;95927;-54
2023/07/06 00:17:27;;;;;;;7.20;5.00;;;;;;;18.65;81.40;100258.35;102781;277;98013;-55
2023/07/06 00:20:10;;;;;;;7.30;5.70;;;;;;;18.68;81.35;100262.84;102739;277;117242;-56
2023/07/06 00:22:47;;;;;;;8.00;5.20;;;;;;;18.61;81.57;100263.09;102751;277;105633;-56
2023/07/06 00:25:31;;;;;;;6.90;5.60;;;;;;;18.60;81.57;100261.88;102736;277;113586;-56
2023/07/06 00:28:11;;;;;;;6.90;5.30;;;;;;;18.62;81.62;100258.96;102757;265;97087;-55
2023/07/06 00:30:57;;;;;;;6.70;5.50;;;;;;;18.64;81.72;100255.21;102748;277;98241;-55
2023/07/06 00:33:33;;;;;;;5.90;5.00;;;;;;;18.68;81.78;100254.31;102796;277;117958;-57
2023/07/06 00:36:12;;;;;;;6.90;5.10;;;;;;;18.66;81.88;100251.59;102703;277;106231;-56
2023/07/06 00:38:47;;;;;;;7.20;5.90;;;;;;;18.65;81.97;100248.84;102794;277;113805;-57
2023/07/06 00:41:25;;;;;;;6.40;5.40;;;;;;;18.64;81.93;100251.67;102722;277;96519;-58
2023/07/06 00:44:04;;;;;;;6.90;4.80;;;;;;;18.65;81.85;100248.77;102792;277;96138;-56
2023/07/06 00:46:45;;;;;;;6.90;5.50;;;;;;;18.64;82.05;100249.58;102784;277;118917;-56
2023/07/06 00:49:20;;;;;;;8.40;5.60;;;;;;;18.65;82.26;100251.04;102793;277;104510;-57
2023/07/06 00:52:02;;;;;;;5.60;5.00;;;;;;;18.65;82.20;100250.52;102744;277;114631;-56
2023/07/06 00:54:42;;;;;;;7.20;4.80;;;;;;;18.63;82.19;100250.39;102729;277;97534;-55
2023/07/06 00:57:20;;;;;;;5.80;4.90;;;;;;;18.63;82.31;100246.39;102756;277;97450;-55
2023/07/06 00:59:59;;;;;;;7.20;5.30;;;;;;;18.66;82.42;100244.30;102793;277;118452;-57
2023/07/06 01:02:35;;;;;;;6.60;5.40;;;;;;;18.68;82.21;100243.46;102777;277;105510;-57
2023/07/06 01:05:12;;;;;;;6.00;5.00;;;;;;;18.64;82.22;100240.61;102741;277;114703;-57
2023/07/06 01:07:55;;;;;;;6.80;5.10;;;;;;;18.60;82.31;100237.03;102560;277;96745;-56
2023/07/06 01:10:35;;;;;;;6.30;4.70;;;;;;;18.58;82.24;100236.12;102736;277;98256;-56
2023/07/06 01:13:13;;;;;;;7.90;6.30;;;;;;;18.54;82.33;100236.88;102769;277;118882;-55
2023/07/06 01:15:57;;;;;;;8.20;5.50;;;;;;;18.52;82.31;100237.64;102549;277;107767;-55
2023/07/06 01:18:42;;;;;;;6.60;5.30;;;;;;;18.48;82.34;100234.61;102736;277;115014;-55
2023/07/06 01:21:26;;;;;;;5.70;5.10;;;;;;;18.44;82.64;100235.05;102700;275;96614;-55
2023/07/06 01:24:51;;;;;;;6.80;4.90;;;;;;;18.42;82.52;100237.70;102770;277;97180;-57
2023/07/06 01:28:25;;;;;;;6.50;4.60;;;;;;;18.33;82.79;100235.98;102547;277;118813;-56
2023/07/06 01:31:36;;;;;;;6.70;4.90;;;;;;;18.27;83.07;100233.41;102634;277;105400;-56
2023/07/06 01:34:22;;;;;;;6.70;4.80;;;;;;;18.28;83.00;100226.98;102726;277;115057;-57
2023/07/06 01:37:13;;;;;;;5.20;4.70;;;;;;;18.29;82.92;100229.84;102699;277;95944;-57
2023/07/06 01:40:00;;;;;;;5.50;4.60;;;;;;;18.27;82.98;100229.70;102851;276;98024;-55
2023/07/06 01:42:42;;;;;;;6.00;4.70;;;;;;;18.24;82.76;100231.88;102724;277;118795;-55
2023/07/06 01:45:25;;;;;;;6.60;4.60;;;;;;;18.19;82.74;100233.91;102748;277;104741;-57
2023/07/06 01:48:10;;;;;;;5.30;4.60;;;;;;;18.13;82.99;100232.48;102735;277;112934;-57
2023/07/06 01:51:00;;;;;;;5.60;4.90;;;;;;;18.09;82.98;100228.16;102772;277;96897;-58
2023/07/06 01:53:48;;;;;;;6.40;4.30;;;;;;;18.06;83.00;100226.49;102754;277;96847;-55
2023/07/06 01:56:28;;;;;;;5.40;4.20;;;;;;;18.03;82.98;100219.42;102631;277;118493;-54
2023/07/06 01:59:11;;;;;;;5.70;4.60;;;;;;;17.99;82.84;100219.99;102638;266;105432;-57
2023/07/06 02:02:00;;;;;;;9.20;4.40;;;;;;;17.98;83.00;100222.25;102561;278;113128;-57
2023/07/06 02:04:49;;;;;;;6.80;4.70;;;;;;;17.97;82.96;100223.55;102578;278;96628;-55
2023/07/06 02:07:26;;;;;;;5.80;4.20;;;;;;;17.92;82.90;100222.09;102484;278;97475;-56
2023/07/06 02:10:02;;;;;;;5.70;4.50;;;;;;;17.86;83.09;100222.95;102541;278;116969;-57
2023/07/06 02:12:47;;;;;;;6.60;4.10;;;;;;;17.83;83.00;100218.23;102513;278;104991;-57
2023/07/06 02:15:25;;;;;;;5.20;4.30;;;;;;;17.77;83.27;100221.16;102491;278;114569;-55
2023/07/06 02:18:02;;;;;;;5.70;4.40;;;;;;;17.73;83.33;100217.36;102571;278;96353;-57
2023/07/06 02:20:36;;;;;;;6.90;4.30;;;;;;;17.68;83.31;100217.35;102495;279;98562;-56
2023/07/06 02:23:13;;;;;;;6.90;4.70;;;;;;;17.63;83.43;100215.84;102557;278;120251;-58
2023/07/06 02:25:55;;;;;;;7.40;4.50;;;;;;;17.58;83.66;100215.65;102532;278;105557;-56
2023/07/06 02:28:37;;;;;;;5.60;4.50;;;;;;;17.53;83.78;100214.00;102544;278;115007;-58
2023/07/06 02:31:16;;;;;;;5.40;4.60;;;;;;;17.50;83.79;100218.45;102614;278;96291;-57
2023/07/06 02:33:57;;;;;;;6.30;4.40;;;;;;;17.49;84.02;100223.66;102617;278;96751;-58
2023/07/06 02:36:38;;;;;;;6.50;4.40;;;;;;;17.48;84.01;100229.55;102602;278;119494;-58
2023/07/06 02:39:13;;;;;;;6.50;4.60;;;;;;;17.48;83.96;100232.34;102564;278;103878;-57
2023/07/06 02:41:54;;;;;;;5.20;4.60;;;;;;;17.46;84.24;100231.86;102576;278;113835;-58
2023/07/06 02:44:34;;;;;;;6.90;4.80;;;;;;;17.46;84.29;100235.73;102577;278;96988;-56
2023/07/06 02:47:10;;;;;;;6.00;4.20;;;;;;;17.50;84.30;100234.39;102555;278;97137;-55
2023/07/06 02:49:46;;;;;;;6.30;4.60;;;;;;;17.52;84.41;100237.52;102582;278;118507;-55
2023/07/06 02:52:20;;;;;;;6.00;4.40;;;;;;;17.52;84.47;100232.39;102486;279;105188;-55
2023/07/06 02:54:55;;;;;;;4.40;3.80;;;;;;;17.54;84.47;100240.70;102514;278;114977;-55
2023/07/06 02:57:39;;;;;;;5.80;4.90;;;;;;;17.56;84.61;100245.98;102544;278;96196;-55
2023/07/06 03:00:17;;;;;;;6.20;4.30;;;;;;;17.58;84.59;100243.30;102586;278;96561;-56
2023/07/06 03:02:56;;;;;;;5.00;4.20;;;;;;;17.59;84.72;100252.66;102549;278;120292;-56
2023/07/06 03:05:35;;;;;;;4.90;4.40;;;;;;;17.58;84.64;100248.16;102607;278;103844;-58
2023/07/06 03:08:15;;;;;;;7.00;4.60;;;;;;;17.61;84.88;100249.17;102543;278;113286;-56
2023/07/06 03:10:56;;;;;;;5.00;4.30;;;;;;;17.69;85.10;100250.28;102637;278;95548;-55
2023/07/06 03:13:37;;;;;;;5.40;4.30;;;;;;;17.76;85.17;100256.88;102622;278;96435;-55
2023/07/06 03:16:15;;;;;;;5.60;4.40;;;;;;;17.82;85.38;100267.73;102647;278;119707;-56
2023/07/06 03:18:59;;;;;;;7.30;4.70;;;;;;;17.95;85.52;100271.39;102686;278;106163;-55
2023/07/06 03:21:38;;;;;;;7.20;4.70;;;;;;;18.04;85.57;100270.66;102543;278;114521;-56
2023/07/06 03:24:13;;;;;;;8.30;5.10;;;;;;;18.12;85.66;100272.20;102601;278;97703;-55
2023/07/06 03:26:58;;;;;;;6.60;4.60;;;;;;;18.21;85.45;100277.16;102577;278;97469;-56
2023/07/06 03:29:35;;;;;;;;;;;;;;;18.26;85.61;100277.73;102595;278;117596;-57
2023/07/06 03:32:14;;;;;;;6.30;5.00;;;;;;;18.27;85.66;100278.17;102579;267;104475;-57
2023/07/06 03:34:51;;;;;;;5.90;5.20;;;;;;;18.35;85.55;100277.10;102503;278;113377;-57
2023/07/06 03:37:31;;;;;;;7.30;4.80;;;;;;;18.42;85.37;100270.45;102607;278;97260;-56
2023/07/06 03:40:11;;;;;;;7.20;4.90;;;;;;;18.48;85.18;100273.16;102583;278;97381;-57
2023/07/06 03:42:50;;;;;;;7.20;5.20;;;;;;;18.49;85.03;100279.00;102575;278;119740;-57
2023/07/06 03:45:36;;;;;;;7.80;4.80;;;;;;;18.49;85.11;100281.95;102518;278;104580;-57
2023/07/06 03:48:23;;;;;;;9.20;5.00;;;;;;;18.49;85.25;100290.22;102567;278;114950;-57
2023/07/06 03:51:05;;;;;;;6.60;5.20;;;;;;;18.52;85.20;100292.36;102631;278;98226;-57
2023/07/06 03:53:47;;;;;;;7.40;5.30;;;;;;;18.53;85.14;100293.64;102485;279;98709;-55
2023/07/06 03:56:28;;;;;;;8.10;4.40;;;;;;;18.54;85.35;100296.89;102591;278;119607;-56
2023/07/06 03:59:05;;;;;;;6.60;5.20;;;;;;;18.54;85.38;100295.35;102640;278;105836;-57
2023/07/06 04:01:40;;;;;;;8.80;5.80;;;;;;;18.53;85.25;100292.77;102589;278;113654;-56
2023/07/06 04:04:26;;;;;;;5.60;5.00;;;;;;;18.61;85.13;100297.68;102629;278;97067;-58
2023/07/06 04:07:03;;;;;;;6.70;5.00;;;;;;;18.69;85.01;100304.94;102592;278;97312;-57
2023/07/06 04:09:41;;;;;;;8.10;5.60;;;;;;;18.71;85.01;100308.73;102595;278;119483;-56
2023/07/06 04:12:18;;;;;;;6.80;4.80;;;;;;;18.77;84.90;100310.86;102576;278;105580;-55
2023/07/06 04:15:00;;;;;;;6.50;5.10;;;;;;;18.80;84.88;100311.14;102573;278;114435;-58
2023/07/06 04:17:36;;;;;;;6.20;5.00;;;;;;;18.80;84.93;100309.04;102548;278;98410;-57
2023/07/06 04:20:19;;;;;;;7.60;4.90;;;;;;;18.86;84.75;100314.09;102555;278;97849;-56
2023/07/06 04:23:02;;;;;;;7.30;5.10;;;;;;;18.90;84.86;100317.46;102568;277;118525;-55
2023/07/06 04:25:38;;;;;;;10.70;5.20;;;;;;;18.94;84.91;100318.35;102465;268;105497;-55
2023/07/06 04:28:20;;;;;;;6.00;4.50;;;;;;;19.01;84.59;100319.95;102569;278;113823;-57
2023/07/06 04:31:02;;;;;;;5.90;4.50;;;;;;;19.06;84.53;100318.95;102400;279;95295;-56
2023/07/06 04:33:47;;;;;;;5.90;4.80;;;;;;;19.10;84.33;100320.77;102578;278;95445;-57
2023/07/06 04:36:31;;;;;;;6.60;4.60;;;;;;;19.16;84.30;100323.98;102532;278;119794;-57
2023/07/06 04:39:10;;;;;;;8.30;4.90;;;;;;;19.28;84.40;100321.80;102536;278;106317;-56
2023/07/06 04:41:45;;;;;;;5.70;4.80;;;;;;;19.42;84.26;100317.19;102521;278;112585;-55
2023/07/06 04:44:24;;;;;;;6.90;5.20;;;;;;;19.53;84.12;100315.23;102576;278;97784;-56
2023/07/06 04:47:03;;;;;;;8.40;5.10;;;;;;;19.60;84.00;100320.27;102545;278;96125;-56
2023/07/06 04:49:41;;;;;;;6.00;4.70;;;;;;;19.67;83.79;100327.90;102568;278;119810;-58
2023/07/06 04:52:20;;;;;;;5.60;5.00;;;;;;;19.67;83.62;100328.64;102468;275;108055;-57
2023/07/06 04:55:05;;;;;;;6.40;4.90;;;;;;;19.67;83.48;100334.46;102612;278;114310;-55
2023/07/06 04:57:46;;;;;;;7.80;5.30;;;;;;;19.68;83.15;100331.91;102535;278;94709;-55
2023/07/06 05:00:26;;;;;;;7.80;5.00;;;;;;;19.62;83.07;100336.48;102507;266;98721;-55
2023/07/06 05:03:08;;;;;;;5.80;5.00;;;;;;;19.55;83.24;100341.40;102513;278;120162;-55
2023/07/06 05:05:47;;;;;;;5.80;4.80;;;;;;;19.52;83.30;100337.81;102530;278;106273;-55
2023/07/06 05:08:29;;;;;;;7.20;5.20;;;;;;;19.55;83.34;100341.40;102553;278;114061;-57
2023/07/06 05:11:07;;;;;;;6.00;4.70;;;;;;;19.72;83.51;100344.99;102469;278;95878;-57
2023/07/06 05:13:46;;;;;;;7.00;4.70;;;;;;;19.91;83.39;100351.67;102573;278;97737;-56
2023/07/06 05:16:23;;;;;;;7.00;5.10;;;;;;;20.18;83.16;100346.93;102525;278;119518;-55
2023/07/06 05:19:05;;;;;;;7.40;5.20;;;;;;;20.37;82.76;100355.15;102121;278;106928;-56
2023/07/06 05:21:40;;;;;;;6.70;5.10;;;;;;;20.51;82.71;100355.24;102375;278;115848;-56
2023/07/06 05:24:15;;;;;;;6.20;5.30;;;;;;;20.63;82.26;100364.77;102593;278;95348;-57
2023/07/06 05:26:52;;;;;;;5.10;4.60;;;;;;;20.78;82.20;100366.05;102555;278;97817;-57
2023/07/06 05:29:32;;;;;;;8.20;5.40;;;;;;;20.99;82.09;100370.80;102569;278;118701;-57
2023/07/06 05:32:10;;;;;;;8.00;5.50;;;;;;;21.26;81.39;100376.49;102549;278;106276;-57
2023/07/06 05:34:47;;;;;;;6.90;5.40;;;;;;;21.48;80.98;100377.58;102531;278;114645;-54
2023/07/06 05:37:24;;;;;;;7.40;5.50;;;;;;;21.90;80.72;100381.30;102546;278;92856;-55
2023/07/06 05:39:59;;;;;;;7.10;5.70;;;;;;;22.64;80.35;100379.72;102561;278;96087;-56
2023/07/06 05:42:40;;;;;;;7.90;6.20;;;;;;;23.34;79.45;100375.66;102557;278;121161;-55
2023/07/06 05:45:30;;;;;;;8.80;6.10;;;;;;;23.92;78.05;100376.52;102563;278;103699;-57
2023/07/06 05:48:10;;;;;;;8.20;6.20;;;;;;;24.19;76.71;100375.41;102551;278;116141;-55
2023/07/06 05:50:46;;;;;;;7.30;5.80;;;;;;;24.16;75.53;100376.52;102493;278;93228;-56
2023/07/06 05:53:24;;;;;;;9.00;5.90;;;;;;;23.89;74.53;100378.61;102547;278;97637;-55
2023/07/06 05:55:59;;;;;;;8.30;6.70;;;;;;;23.47;74.24;100387.23;102528;278;121429;-54
2023/07/06 05:58:38;;;;;;;9.70;6.80;;;;;;;23.12;74.11;100395.58;102556;278;105654;-56
2023/07/06 06:01:20;;;;;;;8.70;6.40;;;;;;;22.84;74.28;100403.30;102535;278;114696;-55
2023/07/06 06:04:04;;;;;;;10.40;6.60;;;;;;;22.70;74.16;100408.36;102544;278;94108;-55
2023/07/06 06:06:55;;;;;;;8.50;6.20;;;;;;;22.48;74.36;100416.15;102551;278;97029;-56
2023/07/06 06:09:34;;;;;;;8.10;6.00;;;;;;;22.27;74.33;100414.59;102529;278;118984;-56
2023/07/06 06:12:17;;;;;;;8.00;6.40;;;;;;;22.07;74.58;100419.40;102525;278;105841;-55
2023/07/06 06:14:54;;;;;;;14.30;7.50;;;;;;;22.07;74.99;100427.45;102607;278;114920;-57
2023/07/06 06:17:28;;;;;;;9.20;6.60;;;;;;;22.48;75.82;100426.39;102569;278;95286;-57
2023/07/06 06:20:09;;;;;;;7.70;5.70;;;;;;;23.21;74.83;100429.38;102588;278;97685;-56
2023/07/06 06:22:47;;;;;;;9.00;6.50;;;;;;;23.53;74.22;100435.10;102502;278;119344;-57
2023/07/06 06:25:27;;;;;;;8.40;6.50;;;;;;;23.44;73.46;100439.33;102531;278;104665;-57
2023/07/06 06:28:04;;;;;;;8.90;6.50;;;;;;;23.23;73.15;100440.96;102597;278;114432;-55
2023/07/06 06:30:48;;;;;;;8.80;5.90;;;;;;;23.16;73.09;100440.98;102558;278;93594;-56
2023/07/06 06:33:26;;;;;;;9.90;6.20;;;;;;;23.23;73.50;100440.08;102599;278;97388;-56
2023/07/06 06:36:04;;;;;;;11.40;6.00;;;;;;;24.52;72.84;100440.94;102581;278;119607;-56
2023/07/06 06:38:39;;;;;;;9.00;6.10;;;;;;;25.39;71.54;100444.31;102570;267;104911;-56
2023/07/06 06:41:16;;;;;;;10.60;5.60;;;;;;;27.48;70.44;100446.78;102475;278;114388;-55
2023/07/06 06:43:50;;;;;;;7.40;5.40;;;;;;;29.55;67.05;100441.02;102625;278;93667;-58
2023/07/06 06:46:25;;;;;;;6.60;5.10;;;;;;;31.21;63.07;100441.20;102568;278;96986;-57
2023/07/06 06:49:03;;;;;;;7.70;5.40;;;;;;;32.65;59.22;100437.98;102550;278;119641;-56
2023/07/06 06:51:40;;;;;;;8.70;5.80;;;;;;;33.01;56.90;100443.66;102610;278;104180;-57
2023/07/06 06:54:22;;;;;;;7.00;5.30;;;;;;;34.17;53.71;100442.16;102623;278;115017;-56
2023/07/06 06:57:06;;;;;;;5.80;5.00;;;;;;;32.72;51.51;100450.54;102531;278;95245;-56
2023/07/06 06:59:43;;;;;;;5.70;4.50;;;;;;;31.12;51.79;100459.07;102605;278;97841;-56
2023/07/06 07:02:22;;;;;;;6.10;4.80;;;;;;;30.17;52.35;100465.01;102575;278;118493;-55
2023/07/06 07:04:59;;;;;;;6.30;5.20;;;;;;;29.50;52.77;100462.42;102637;278;106022;-58
2023/07/06 07:07:38;;;;;;;8.80;5.30;;;;;;;29.56;53.07;100463.96;102573;278;114997;-56
2023/07/06 07:10:13;;;;;;;7.80;5.70;;;;;;;29.49;52.36;100466.59;102646;278;93172;-57
2023/07/06 07:12:48;;;;;;;6.00;5.10;;;;;;;29.44;52.35;100469.27;102546;278;97260;-56
2023/07/06 07:15:27;;;;;;;6.90;4.70;;;;;;;29.59;52.37;100473.95;102607;278;119586;-55
2023/07/06 07:18:08;;;;;;;5.80;4.70;;;;;;;30.36;51.61;100478.48;102633;270;105348;-56
2023/07/06 07:20:50;;;;;;;4.80;3.90;;;;;;;31.38;48.76;100480.70;102569;278;115757;-56
2023/07/06 07:23:34;;;;;;;5.90;3.80;;;;;;;31.83;46.87;100476.80;102499;278;96883;-57
2023/07/06 07:26:16;;;;;;;5.20;3.50;;;;;;;32.48;45.69;100472.33;102539;278;97260;-57
2023/07/06 07:28:52;;;;;;;4.90;3.90;;;;;;;33.42;44.03;100470.80;102575;298;118706;-56
2023/07/06 07:31:27;;;;;;;3.80;3.40;;;;;;;34.29;42.32;100473.59;102510;266;104587;-57
2023/07/06 07:34:02;;;;;;;4.30;3.70;;;;;;;34.84;41.23;100478.56;102579;278;114376;-55
2023/07/06 07:36:39;;;;;;;6.50;3.70;;;;;;;35.30;39.75;100478.16;102539;278;94028;-55
2023/07/06 07:39:15;;;;;;;8.60;4.40;;;;;;;35.96;39.46;100477.42;102601;278;98196;-55
2023/07/06 07:41:49;;;;;;;6.40;3.80;;;;;;;36.56;37.31;100476.53;102583;278;119712;-66
2023/07/06 07:44:28;;;;;;;4.10;3.70;;;;;;;35.95;36.81;100485.60;102505;278;106275;-62
2023/07/06 07:47:07;;;;;;;5.00;3.10;;;;;;;35.52;35.44;100484.44;102530;278;113931;-63
2023/07/06 07:49:45;;;;;;;6.70;4.00;;;;;;;35.21;35.37;100490.34;102525;278;93327;-54
2023/07/06 07:52:23;;;;;;;5.20;3.40;;;;;;;35.47;35.94;100493.58;102549;278;97109;-54
2023/07/06 07:55:02;;;;;;;3.70;3.30;;;;;;;36.10;35.25;100487.97;102507;278;119430;-56
2023/07/06 07:57:42;;;;;;;4.00;3.60;;;;;;;36.46;34.15;100492.09;102483;278;104111;-56
2023/07/06 08:00:18;;;;;;;5.20;3.60;;;;;;;36.03;34.10;100493.33;102485;278;113349;-56
2023/07/06 08:02:53;;;;;;;3.20;2.80;;;;;;;36.33;33.62;100497.73;102535;278;93697;-55
2023/07/06 08:05:40;;;;;;;5.10;3.00;;;;;;;36.46;32.24;100492.71;102515;278;96408;-53
2023/07/06 08:08:22;;;;;;;5.20;3.50;;;;;;;36.72;32.19;100492.71;102531;278;118498;-65
2023/07/06 08:11:10;;;;;;;6.60;3.60;;;;;;;37.06;32.23;100492.52;102556;278;105697;-57
2023/07/06 08:13:54;;;;;;;5.30;3.30;;;;;;;37.56;31.52;100495.30;102495;278;114892;-55
2023/07/06 08:16:32;;;;;;;3.80;3.10;;;;;;;36.98;30.85;100495.73;102607;277;94118;-55
2023/07/06 08:19:06;;;;;;;3.70;3.30;;;;;;;36.66;30.60;100494.73;102618;277;97515;-55
2023/07/06 08:21:42;;;;;;;4.40;3.10;;;;;;;37.13;30.83;100483.96;102602;277;119572;-56
2023/07/06 08:24:21;;;;;;;5.20;3.40;;;;;;;37.53;30.36;100490.93;102660;277;104640;-55
2023/07/06 08:27:07;;;;;;;5.90;3.40;;;;;;;37.51;30.22;100489.48;102617;277;114860;-55
2023/07/06 08:29:52;;;;;;;3.90;3.00;;;;;;;37.63;29.51;100493.16;102604;277;94077;-57
2023/07/06 08:32:28;;;;;;;4.90;3.20;;;;;;;36.96;29.58;100491.42;102631;277;96987;-57
2023/07/06 08:35:07;;;;;;;5.50;2.80;;;;;;;35.75;29.04;100499.63;102611;277;117163;-57
2023/07/06 08:37:44;;;;;;;3.80;2.70;;;;;;;34.04;29.91;100496.38;102685;277;105019;-55
2023/07/06 08:40:23;;;;;;;4.20;2.50;;;;;;;33.68;30.62;100503.25;102618;277;114931;-55
2023/07/06 08:43:13;;;;;;;5.70;2.30;;;;;;;32.47;30.97;100502.17;102572;277;92159;-57
2023/07/06 08:45:56;;;;;;;4.60;2.70;;;;;;;31.09;31.88;100513.04;102599;277;97766;-57
2023/07/06 08:48:39;;;;;;;3.50;2.70;;;;;;;30.47;32.71;100508.48;102688;277;119470;-55
2023/07/06 08:51:28;;;;;;;7.60;2.60;;;;;;;30.14;33.50;100512.90;102642;277;104861;-56
2023/07/06 08:54:10;;;;;;;4.90;2.80;;;;;;;30.40;34.11;100517.05;102639;277;115005;-55
2023/07/06 08:56:52;;;;;;;3.90;2.80;;;;;;;31.22;34.26;100520.55;102611;277;92169;-54
2023/07/06 08:59:41;;;;;;;3.60;2.50;;;;;;;31.82;33.63;100515.69;102569;277;96630;-54
2023/07/06 09:02:29;;;;;;;4.10;2.30;;;;;;;31.61;32.58;100515.20;102624;277;118794;-55
2023/07/06 09:05:17;;;;;;;3.30;2.50;;;;;;;31.56;33.12;100512.29;102648;277;105027;-54
2023/07/06 09:07:57;;;;;;;5.80;2.70;;;;;;;31.37;33.30;100513.02;102694;277;114248;-54
2023/07/06 09:10:34;;;;;;;6.80;3.20;;;;;;;30.51;33.55;100521.30;102645;277;94327;-55
2023/07/06 09:13:25;;;;;;;3.60;2.70;;;;;;;29.94;34.12;100518.98;102678;277;97483;-55
2023/07/06 09:16:03;;;;;;;4.60;2.90;;;;;;;29.71;34.70;100521.11;102656;277;119260;-54
2023/07/06 09:18:44;;;;;;;5.00;2.80;;;;;;;29.42;35.10;100525.14;102715;277;104894;-58
2023/07/06 09:21:38;;;;;;;5.00;2.90;;;;;;;29.60;36.17;100530.83;102648;277;113857;-57
2023/07/06 09:24:15;;;;;;;4.00;2.90;;;;;;;29.70;36.45;100527.86;102639;277;93340;-54
2023/07/06 09:26:53;;;;;;;3.30;2.40;;;;;;;29.49;36.17;100529.95;102647;277;97647;-55
2023/07/06 09:29:34;;;;;;;3.20;2.60;;;;;;;28.85;35.85;100530.35;102655;277;118345;-54
2023/07/06 09:32:37;;;;;;;6.50;2.90;;;;;;;28.39;36.30;100534.20;102637;277;104680;-55
2023/07/06 09:35:25;;;;;;;4.80;2.90;;;;;;;28.52;36.83;100533.02;102632;277;113996;-57
2023/07/06 09:38:06;;;;;;;5.00;2.90;;;;;;;28.61;37.05;100533.49;102675;277;94713;-56
2023/07/06 09:40:49;;;;;;;5.10;2.80;;;;;;;28.83;36.90;100537.77;102679;277;96712;-55
2023/07/06 09:43:32;;;;;;;5.30;2.80;;;;;;;28.94;36.83;100540.30;102653;277;117140;-56
2023/07/06 09:46:14;;;;;;;4.80;3.00;;;;;;;29.06;36.76;100546.45;102507;279;106012;-55
2023/07/06 09:49:01;;;;;;;4.20;2.90;;;;;;;28.94;37.13;100549.08;102663;277;112954;-58
2023/07/06 09:51:43;;;;;;;4.80;2.80;;;;;;;29.06;37.22;100548.67;102663;277;93794;-57
2023/07/06 09:54:27;;;;;;;5.50;2.50;;;;;;;28.99;36.83;100551.98;102572;277;96237;-55
2023/07/06 09:57:15;;;;;;;6.60;2.80;;;;;;;29.07;36.96;100556.69;102685;266;119807;-54
2023/07/06 09:59:52;;;;;;;5.70;2.50;;;;;;;29.14;37.10;100562.17;102740;277;106724;-54
2023/07/06 10:02:40;;;;;;;5.20;2.60;;;;;;;29.07;36.49;100562.12;102666;277;114022;-55
2023/07/06 10:05:37;;;;;;;5.90;2.50;;;;;;;29.04;36.51;100558.64;102723;277;92989;-56
2023/07/06 10:08:21;;;;;;;3.40;2.30;;;;;;;29.01;36.86;100556.09;102712;277;96824;-55
2023/07/06 10:11:12;;;;;;;11.40;2.90;;;;;;;29.12;37.05;100557.52;102703;277;120129;-54
2023/07/06 10:13:59;;;;;;;5.30;2.30;;;;;;;29.14;36.54;100557.40;102705;277;104988;-56
2023/07/06 10:16:51;;;;;;;6.10;2.30;;;;;;;29.09;36.87;100558.87;102676;277;114406;-57
2023/07/06 10:19:38;;;;;;;4.00;2.30;;;;;;;29.30;36.70;100560.14;102718;277;94516;-56
2023/07/06 10:22:23;;;;;;;5.30;2.40;;;;;;;29.16;36.11;100551.34;102715;277;96287;-56
2023/07/06 10:25:13;;;;;;;5.30;2.30;;;;;;;29.18;36.08;100548.75;102693;277;118049;-56
2023/07/06 10:27:53;;;;;;;3.90;2.40;;;;;;;29.59;36.38;100546.94;102721;277;104993;-57
2023/07/06 10:30:37;;;;;;;4.80;2.40;;;;;;;29.98;36.09;100550.88;102684;277;114831;-56
2023/07/06 10:33:23;;;;;;;4.60;2.30;;;;;;;30.34;35.41;100547.95;102548;277;94253;-55
2023/07/06 10:36:01;;;;;;;4.50;2.40;;;;;;;30.53;35.26;100546.98;102700;277;97052;-54
2023/07/06 10:38:35;;;;;;;6.00;2.20;;;;;;;30.28;34.60;100545.37;102782;277;119624;-57
2023/07/06 10:41:34;;;;;;;4.20;2.30;;;;;;;30.13;34.47;100547.95;102749;277;105599;-56
2023/07/06 10:44:51;;;;;;;3.30;2.10;;;;;;;29.91;33.65;100556.98;102708;277;112981;-54
2023/07/06 10:47:45;;;;;;;5.40;2.30;;;;;;;29.58;33.53;100550.54;102811;277;93683;-54
2023/07/06 10:50:30;;;;;;;7.20;2.50;;;;;;;29.59;33.50;100553.95;102746;277;97647;-55
2023/07/06 10:53:25;;;;;;;4.60;2.50;;;;;;;29.48;33.10;100553.24;102740;277;117600;-57
2023/07/06 10:56:21;;;;;;;2.90;2.10;;;;;;;29.22;33.27;100560.36;102715;277;104548;-56
2023/07/06 10:59:00;;;;;;;5.80;2.30;;;;;;;28.99;33.58;100557.40;102734;277;115403;-56
2023/07/06 11:01:40;;;;;;;6.00;2.40;;;;;;;29.21;34.34;100556.09;102678;277;95172;-55
2023/07/06 11:04:53;;;;;;;5.40;2.20;;;;;;;29.51;34.54;100550.52;102726;277;98343;-55
2023/07/06 11:07:49;;;;;;;5.00;2.30;;;;;;;29.65;34.17;100555.55;102536;277;119164;-56
2023/07/06 11:10:36;;;;;;;3.60;2.70;;;;;;;29.83;34.39;100557.40;102696;277;104776;-55
2023/07/06 11:13:32;;;;;;;7.20;3.30;;;;;;;29.83;34.18;100564.55;102696;277;114049;-55
2023/07/06 11:16:23;;;;;;;3.80;2.60;;;;;;;29.61;34.15;100561.86;102661;277;93091;-55
2023/07/06 11:19:03;;;;;;;3.60;2.40;;;;;;;29.40;33.92;100561.02;102751;277;98437;-57
2023/07/06 11:21:53;;;;;;;4.70;2.70;;;;;;;29.41;34.02;100565.55;102676;277;120279;-57
2023/07/06 11:24:39;;;;;;;4.90;2.30;;;;;;;29.37;33.74;100568.70;102714;277;105379;-55
2023/07/06 11:27:30;;;;;;;6.10;2.60;;;;;;;29.30;33.78;100572.78;102668;277;113010;-55
2023/07/06 11:30:22;;;;;;;4.30;2.10;;;;;;;29.30;34.08;100576.46;102698;277;92733;-56
2023/07/06 11:33:16;;;;;;;4.30;2.70;;;;;;;29.36;33.85;100575.56;102723;277;97098;-57
2023/07/06 11:36:09;;;;;;;3.50;2.40;;;;;;;29.21;33.67;100584.52;102724;277;118878;-57
2023/07/06 11:39:05;;;;;;;3.50;2.30;;;;;;;28.97;33.49;100584.30;102682;277;104311;-54
2023/07/06 11:41:53;;;;;;;4.70;2.30;;;;;;;28.59;33.51;100580.66;102679;277;113814;-54
2023/07/06 11:44:47;;;;;;;3.90;2.60;;;;;;;28.34;33.69;100585.98;102648;277;95290;-54
2023/07/06 11:47:45;;;;;;;2.90;2.40;;;;;;;28.03;33.65;100590.17;102641;277;96309;-54
2023/07/06 11:50:34;;;;;;;5.10;2.50;;;;;;;27.73;33.86;100593.48;102496;277;119773;-55
2023/07/06 11:53:29;;;;;;;7.00;3.10;;;;;;;27.73;34.32;100598.96;102726;277;105450;-55
2023/07/06 11:56:33;;;;;;;3.80;2.10;;;;;;;28.03;35.00;100596.22;102575;277;113712;-56
2023/07/06 11:59:26;;;;;;;3.60;2.20;;;;;;;28.14;34.44;100599.05;102621;277;95016;-57
2023/07/06 12:02:07;;;;;;;6.20;2.60;;;;;;;28.18;34.30;100596.86;102634;277;96564;-59
2023/07/06 12:04:46;;;;;;;3.40;2.30;;;;;;;28.29;34.14;100595.68;102652;277;120042;-54
2023/07/06 12:07:32;;;;;;;4.90;2.20;;;;;;;28.44;34.29;100600.66;102542;279;104890;-54
2023/07/06 12:10:14;;;;;;;5.00;2.20;;;;;;;28.51;34.23;100606.01;102643;277;113863;-56
2023/07/06 12:12:54;;;;;;;3.50;2.20;;;;;;;28.44;33.71;100604.62;102653;277;93737;-54
2023/07/06 12:15:33;;;;;;;4.10;1.80;;;;;;;28.25;33.68;100600.35;102668;277;98354;-55
2023/07/06 12:18:18;;;;;;;5.40;1.90;;;;;;;28.08;33.32;100601.23;102634;277;118315;-56
2023/07/06 12:21:01;;;;;;;3.90;2.20;;;;;;;27.88;33.22;100599.83;102715;277;103159;-57
2023/07/06 12:23:47;;;;;;;4.00;2.30;;;;;;;27.91;33.65;100597.17;102733;277;112245;-56
2023/07/06 12:26:29;;;;;;;3.90;2.00;;;;;;;28.13;33.73;100583.36;102657;277;92861;-56
2023/07/06 12:29:08;;;;;;;6.10;2.20;;;;;;;28.45;33.43;100580.13;102691;277;98253;-55